createdAt,value
2019-04-29T00:00:52.573Z,1017.5
2019-04-29T00:01:54.106Z,1017.5
2019-04-29T00:02:55.504Z,1017.5
2019-04-29T00:03:56.899Z,1017.4
2019-04-29T00:04:58.427Z,1017.4
2019-04-29T00:05:59.821Z,1017.4
2019-04-29T00:07:01.217Z,1017.4
2019-04-29T00:08:02.750Z,1017.5
2019-04-29T00:09:06.567Z,1017.5
2019-04-29T00:10:05.506Z,1017.5
2019-04-29T00:11:07.072Z,1017.5
2019-04-29T00:12:08.464Z,1017.5
2019-04-29T00:13:09.860Z,1017.5
2019-04-29T00:14:11.391Z,1017.5
2019-04-29T00:15:12.789Z,1017.5
2019-04-29T00:16:14.182Z,1017.5
2019-04-29T00:17:15.712Z,1017.5
2019-04-29T00:18:17.108Z,1017.5
2019-04-29T00:19:18.594Z,1017.6
2019-04-29T00:20:19.990Z,1017.6
2019-04-29T00:21:21.381Z,1017.5
2019-04-29T00:22:22.916Z,1017.5
2019-04-29T00:23:24.309Z,1017.6
2019-04-29T00:24:25.709Z,1017.6
2019-04-29T00:25:27.237Z,1017.5
2019-04-29T00:26:28.630Z,1017.6
2019-04-29T00:27:30.120Z,1017.6
2019-04-29T00:28:31.523Z,1017.6
2019-04-29T00:29:33.020Z,1017.6
2019-04-29T00:30:34.391Z,1017.6
2019-04-29T00:31:35.878Z,1017.6
2019-04-29T00:32:37.275Z,1017.6
2019-04-29T00:33:38.759Z,1017.5
2019-04-29T00:34:40.159Z,1017.5
2019-04-29T00:35:41.545Z,1017.6
2019-04-29T00:36:43.081Z,1017.6
2019-04-29T00:37:44.475Z,1017.6
2019-04-29T00:38:45.870Z,1017.6
2019-04-29T00:39:47.402Z,1017.6
2019-04-29T00:40:48.794Z,1017.6
2019-04-29T00:41:50.283Z,1017.6
2019-04-29T00:42:51.680Z,1017.6
2019-04-29T00:43:53.102Z,1017.6
2019-04-29T00:44:54.488Z,1017.6
2019-04-29T00:45:55.882Z,1017.6
2019-04-29T00:46:57.485Z,1017.6
2019-04-29T00:47:58.878Z,1017.6
2019-04-29T00:49:00.272Z,1017.6
2019-04-29T00:50:01.809Z,1017.6
2019-04-29T00:51:03.204Z,1017.6
2019-04-29T00:52:04.689Z,1017.6
2019-04-29T00:53:06.086Z,1017.6
2019-04-29T00:54:07.580Z,1017.6
2019-04-29T00:55:08.971Z,1017.6
2019-04-29T00:56:10.454Z,1017.7
2019-04-29T00:57:11.847Z,1017.6
2019-04-29T00:58:13.331Z,1017.6
2019-04-29T00:59:14.726Z,1017.6
2019-04-29T01:00:16.213Z,1017.6
2019-04-29T01:01:17.606Z,1017.6
2019-04-29T01:02:19.101Z,1017.6
2019-04-29T01:03:20.494Z,1017.7
2019-04-29T01:04:21.977Z,1017.6
2019-04-29T01:05:23.367Z,1017.6
2019-04-29T01:06:24.765Z,1017.7
2019-04-29T01:07:26.294Z,1017.7
2019-04-29T01:08:27.690Z,1017.6
2019-04-29T01:09:29.083Z,1017.6
2019-04-29T01:10:30.620Z,1017.6
2019-04-29T01:11:32.009Z,1017.7
2019-04-29T01:12:33.503Z,1017.7
2019-04-29T01:13:34.894Z,1017.6
2019-04-29T01:14:36.378Z,1017.6
2019-04-29T01:15:37.787Z,1017.6
2019-04-29T01:16:39.178Z,1017.6
2019-04-29T01:17:40.699Z,1017.6
2019-04-29T01:18:42.094Z,1017.5
2019-04-29T01:19:43.491Z,1017.5
2019-04-29T01:20:45.029Z,1017.6
2019-04-29T01:21:46.422Z,1017.5
2019-04-29T01:22:47.817Z,1017.6
2019-04-29T01:23:49.342Z,1017.5
2019-04-29T01:24:50.741Z,1017.6
2019-04-29T01:25:52.162Z,1017.6
2019-04-29T01:26:53.663Z,1017.6
2019-04-29T01:27:55.056Z,1017.5
2019-04-29T01:28:56.544Z,1017.6
2019-04-29T01:29:57.979Z,1017.5
2019-04-29T01:30:59.425Z,1017.6
2019-04-29T01:32:00.820Z,1017.6
2019-04-29T01:33:02.308Z,1017.6
2019-04-29T01:34:03.701Z,1017.5
2019-04-29T01:35:05.190Z,1017.5
2019-04-29T01:36:06.582Z,1017.6
2019-04-29T01:37:07.977Z,1017.5
2019-04-29T01:38:09.510Z,1017.5
2019-04-29T01:39:10.899Z,1017.5
2019-04-29T01:40:12.295Z,1017.6
2019-04-29T01:41:13.835Z,1017.6
2019-04-29T01:42:15.227Z,1017.6
2019-04-29T01:43:16.713Z,1017.5
2019-04-29T01:44:18.106Z,1017.6
2019-04-29T01:45:19.596Z,1017.6
2019-04-29T01:46:20.987Z,1017.6
2019-04-29T01:47:22.473Z,1017.6
2019-04-29T01:48:23.870Z,1017.6
2019-04-29T01:49:25.356Z,1017.5
2019-04-29T01:50:26.751Z,1017.6
2019-04-29T01:51:28.237Z,1017.6
2019-04-29T01:52:29.627Z,1017.6
2019-04-29T01:53:31.117Z,1017.6
2019-04-29T01:54:32.509Z,1017.6
2019-04-29T01:55:33.998Z,1017.6
2019-04-29T01:56:35.394Z,1017.6
2019-04-29T01:57:36.788Z,1017.6
2019-04-29T01:58:38.318Z,1017.6
2019-04-29T01:59:39.718Z,1017.6
2019-04-29T02:00:41.109Z,1017.6
2019-04-29T02:01:42.639Z,1017.6
2019-04-29T02:02:44.032Z,1017.6
2019-04-29T02:03:45.523Z,1017.7
2019-04-29T02:04:46.925Z,1017.6
2019-04-29T02:05:48.336Z,1017.7
2019-04-29T02:06:49.729Z,1017.6
2019-04-29T02:07:51.121Z,1017.7
2019-04-29T02:08:52.723Z,1017.6
2019-04-29T02:09:54.119Z,1017.7
2019-04-29T02:10:55.513Z,1017.6
2019-04-29T02:11:57.043Z,1017.6
2019-04-29T02:12:58.438Z,1017.7
2019-04-29T02:13:59.829Z,1017.7
2019-04-29T02:15:01.366Z,1017.7
2019-04-29T02:16:02.766Z,1017.7
2019-04-29T02:17:04.148Z,1017.7
2019-04-29T02:18:05.688Z,1017.8
2019-04-29T02:19:07.081Z,1017.8
2019-04-29T02:20:08.568Z,1017.8
2019-04-29T02:21:09.961Z,1017.8
2019-04-29T02:22:11.449Z,1017.8
2019-04-29T02:23:12.843Z,1017.8
2019-04-29T02:24:14.331Z,1017.9
2019-04-29T02:25:15.723Z,1017.9
2019-04-29T02:26:17.210Z,1017.9
2019-04-29T02:27:18.606Z,1017.9
2019-04-29T02:28:20.092Z,1017.9
2019-04-29T02:29:21.495Z,1017.9
2019-04-29T02:30:22.981Z,1017.9
2019-04-29T02:31:24.375Z,1017.9
2019-04-29T02:32:25.769Z,1017.9
2019-04-29T02:33:27.294Z,1018.0
2019-04-29T02:34:28.706Z,1018.0
2019-04-29T02:35:30.105Z,1018.0
2019-04-29T02:36:31.615Z,1018.0
2019-04-29T02:37:33.008Z,1017.9
2019-04-29T02:38:34.404Z,1018.0
2019-04-29T02:39:35.939Z,1018.1
2019-04-29T02:40:37.331Z,1017.9
2019-04-29T02:41:38.729Z,1018.0
2019-04-29T02:42:40.261Z,1018.0
2019-04-29T02:43:41.652Z,1017.9
2019-04-29T02:44:43.141Z,1017.9
2019-04-29T02:45:44.535Z,1017.9
2019-04-29T02:46:45.931Z,1018.0
2019-04-29T02:47:47.461Z,1017.9
2019-04-29T02:48:48.856Z,1018.0
2019-04-29T02:49:50.246Z,1017.9
2019-04-29T02:50:51.784Z,1017.9
2019-04-29T02:51:53.188Z,1017.9
2019-04-29T02:52:54.571Z,1017.9
2019-04-29T02:53:56.103Z,1017.9
2019-04-29T02:54:57.501Z,1017.9
2019-04-29T02:55:58.985Z,1017.8
2019-04-29T02:57:00.376Z,1017.9
2019-04-29T02:58:01.873Z,1017.9
2019-04-29T02:59:03.271Z,1017.9
2019-04-29T03:00:04.809Z,1017.9
2019-04-29T03:01:06.210Z,1017.9
2019-04-29T03:02:07.840Z,1017.9
2019-04-29T03:03:09.225Z,1017.9
2019-04-29T03:04:10.714Z,1017.9
2019-04-29T03:05:12.107Z,1017.8
2019-04-29T03:06:13.594Z,1017.8
2019-04-29T03:07:14.982Z,1017.8
2019-04-29T03:08:16.474Z,1017.9
2019-04-29T03:09:17.871Z,1017.8
2019-04-29T03:10:19.362Z,1017.8
2019-04-29T03:11:20.745Z,1017.8
2019-04-29T03:12:22.142Z,1017.8
2019-04-29T03:13:23.678Z,1017.8
2019-04-29T03:14:25.071Z,1017.8
2019-04-29T03:15:26.464Z,1017.8
2019-04-29T03:16:27.999Z,1017.9
2019-04-29T03:17:29.393Z,1017.8
2019-04-29T03:18:30.784Z,1017.8
2019-04-29T03:19:32.321Z,1017.9
2019-04-29T03:20:33.712Z,1017.8
2019-04-29T03:21:35.117Z,1017.9
2019-04-29T03:22:36.504Z,1017.8
2019-04-29T03:23:38.082Z,1017.8
2019-04-29T03:24:39.479Z,1017.8
2019-04-29T03:25:40.969Z,1017.8
2019-04-29T03:26:42.356Z,1017.9
2019-04-29T03:27:43.843Z,1017.8
2019-04-29T03:28:45.270Z,1017.9
2019-04-29T03:29:46.727Z,1017.8
2019-04-29T03:30:48.124Z,1017.9
2019-04-29T03:31:49.621Z,1017.8
2019-04-29T03:32:51.394Z,1017.9
2019-04-29T03:33:52.806Z,1017.8
2019-04-29T03:34:54.425Z,1017.8
2019-04-29T03:35:55.696Z,1017.8
2019-04-29T03:36:57.087Z,1017.9
2019-04-29T03:37:58.678Z,1017.9
2019-04-29T03:39:00.054Z,1017.9
2019-04-29T03:40:01.584Z,1017.9
2019-04-29T03:41:02.930Z,1017.9
2019-04-29T03:42:07.288Z,1017.9
2019-04-29T03:43:05.859Z,1018.0
2019-04-29T03:44:07.273Z,1018.0
2019-04-29T03:45:08.667Z,1018.0
2019-04-29T03:46:10.185Z,1018.0
2019-04-29T03:47:11.575Z,1018.0
2019-04-29T03:48:12.972Z,1018.0
2019-04-29T03:49:14.503Z,1018.0
2019-04-29T03:50:15.900Z,1018.0
2019-04-29T03:51:17.398Z,1018.0
2019-04-29T03:52:18.796Z,1018.0
2019-04-29T03:53:20.264Z,1018.0
2019-04-29T03:54:21.659Z,1018.1
2019-04-29T03:55:38.361Z,1018.0
2019-04-29T03:56:24.587Z,1018.1
2019-04-29T03:57:26.334Z,1018.1
2019-04-29T03:58:27.730Z,1018.1
2019-04-29T03:59:29.319Z,1018.1
2019-04-29T04:00:30.732Z,1018.1
2019-04-29T04:01:32.201Z,1018.1
2019-04-29T04:02:33.592Z,1018.0
2019-04-29T04:03:35.200Z,1018.1
2019-04-29T04:04:36.437Z,1018.2
2019-04-29T04:05:37.959Z,1018.1
2019-04-29T04:06:39.367Z,1018.2
2019-04-29T04:07:40.842Z,1018.2
2019-04-29T04:08:42.235Z,1018.1
2019-04-29T04:09:43.728Z,1018.1
2019-04-29T04:10:45.119Z,1018.2
2019-04-29T04:11:46.615Z,1018.1
2019-04-29T04:12:48.004Z,1018.1
2019-04-29T04:13:49.406Z,1018.1
2019-04-29T04:14:50.925Z,1018.1
2019-04-29T04:15:52.322Z,1018.1
2019-04-29T04:16:53.718Z,1018.1
2019-04-29T04:17:55.248Z,1018.1
2019-04-29T04:18:56.647Z,1018.1
2019-04-29T04:19:58.133Z,1018.1
2019-04-29T04:20:59.530Z,1018.0
2019-04-29T04:22:01.216Z,1018.1
2019-04-29T04:23:02.645Z,1018.1
2019-04-29T04:24:04.099Z,1018.1
2019-04-29T04:25:05.494Z,1018.0
2019-04-29T04:26:06.976Z,1018.1
2019-04-29T04:27:08.376Z,1018.1
2019-04-29T04:28:09.880Z,1018.1
2019-04-29T04:29:11.257Z,1018.1
2019-04-29T04:30:12.689Z,1018.1
2019-04-29T04:31:14.083Z,1018.2
2019-04-29T04:32:15.568Z,1018.1
2019-04-29T04:33:16.968Z,1018.1
2019-04-29T04:34:18.452Z,1018.2
2019-04-29T04:35:19.845Z,1018.2
2019-04-29T04:36:21.331Z,1018.2
2019-04-29T04:37:22.728Z,1018.2
2019-04-29T04:38:24.210Z,1018.2
2019-04-29T04:39:25.815Z,1018.2
2019-04-29T04:40:27.298Z,1018.2
2019-04-29T04:41:28.694Z,1018.3
2019-04-29T04:42:30.383Z,1018.2
2019-04-29T04:43:31.538Z,1018.2
2019-04-29T04:44:32.935Z,1018.3
2019-04-29T04:45:34.507Z,1018.3
2019-04-29T04:46:35.895Z,1018.3
2019-04-29T04:47:37.292Z,1018.3
2019-04-29T04:48:38.821Z,1018.3
2019-04-29T04:49:40.218Z,1018.3
2019-04-29T04:50:41.704Z,1018.2
2019-04-29T04:51:43.480Z,1018.2
2019-04-29T04:52:44.993Z,1018.2
2019-04-29T04:53:46.389Z,1018.2
2019-04-29T04:54:47.875Z,1018.2
2019-04-29T04:55:49.234Z,1018.2
2019-04-29T04:56:50.758Z,1018.2
2019-04-29T04:57:52.175Z,1018.2
2019-04-29T04:58:53.641Z,1018.2
2019-04-29T04:59:55.042Z,1018.2
2019-04-29T05:00:56.518Z,1018.2
2019-04-29T05:01:57.914Z,1018.2
2019-04-29T05:02:59.400Z,1018.3
2019-04-29T05:04:00.805Z,1018.3
2019-04-29T05:05:02.204Z,1018.3
2019-04-29T05:06:03.720Z,1018.3
2019-04-29T05:07:05.117Z,1018.3
2019-04-29T05:08:06.917Z,1018.3
2019-04-29T05:09:08.451Z,1018.4
2019-04-29T05:10:09.848Z,1018.3
2019-04-29T05:11:11.258Z,1018.4
2019-04-29T05:12:14.154Z,1018.3
2019-04-29T05:13:26.937Z,1018.4
2019-04-29T05:14:15.494Z,1018.3
2019-04-29T05:15:17.093Z,1018.4
2019-04-29T05:16:18.496Z,1018.4
2019-04-29T05:17:19.976Z,1018.4
2019-04-29T05:18:21.375Z,1018.5
2019-04-29T05:19:22.779Z,1018.5
2019-04-29T05:20:24.175Z,1018.5
2019-04-29T05:21:25.573Z,1018.6
2019-04-29T05:22:27.178Z,1018.5
2019-04-29T05:23:28.576Z,1018.6
2019-04-29T05:24:29.974Z,1018.5
2019-04-29T05:25:31.505Z,1018.6
2019-04-29T05:26:32.901Z,1018.6
2019-04-29T05:27:34.299Z,1018.7
2019-04-29T05:28:35.821Z,1018.7
2019-04-29T05:29:37.218Z,1018.6
2019-04-29T05:30:38.621Z,1018.6
2019-04-29T05:31:40.144Z,1018.6
2019-04-29T05:32:41.546Z,1018.7
2019-04-29T05:33:42.948Z,1018.7
2019-04-29T05:34:46.444Z,1018.7
2019-04-29T05:35:45.827Z,1018.7
2019-04-29T05:36:47.347Z,1018.7
2019-04-29T05:37:48.747Z,1018.8
2019-04-29T05:38:50.228Z,1018.7
2019-04-29T05:39:52.011Z,1018.8
2019-04-29T05:40:56.554Z,1018.8
2019-04-29T05:41:54.884Z,1018.8
2019-04-29T05:42:56.400Z,1018.8
2019-04-29T05:43:57.799Z,1018.8
2019-04-29T05:44:59.282Z,1018.9
2019-04-29T05:46:00.681Z,1018.9
2019-04-29T05:47:02.162Z,1018.9
2019-04-29T05:48:03.561Z,1018.9
2019-04-29T05:49:07.368Z,1018.9
2019-04-29T05:50:06.584Z,1018.9
2019-04-29T05:51:07.924Z,1018.9
2019-04-29T05:52:09.325Z,1018.9
2019-04-29T05:53:11.608Z,1018.9
2019-04-29T05:54:12.169Z,1019.0
2019-04-29T05:55:14.089Z,1019.0
2019-04-29T05:56:15.130Z,1019.0
2019-04-29T05:57:20.360Z,1019.1
2019-04-29T05:58:17.898Z,1019.1
2019-04-29T05:59:19.448Z,1019.1
2019-04-29T06:00:23.381Z,1019.1
2019-04-29T06:01:22.329Z,1019.1
2019-04-29T06:02:31.650Z,1019.1
2019-04-29T06:03:25.210Z,1019.2
2019-04-29T06:04:28.609Z,1019.2
2019-04-29T06:05:28.097Z,1019.1
2019-04-29T06:06:29.500Z,1019.2
2019-04-29T06:07:30.973Z,1019.2
2019-04-29T06:08:34.559Z,1019.2
2019-04-29T06:09:33.750Z,1019.2
2019-04-29T06:10:35.147Z,1019.2
2019-04-29T06:11:36.736Z,1019.2
2019-04-29T06:12:38.135Z,1019.2
2019-04-29T06:13:39.537Z,1019.2
2019-04-29T06:14:41.057Z,1019.3
2019-04-29T06:15:42.458Z,1019.3
2019-04-29T06:16:43.938Z,1019.3
2019-04-29T06:17:46.283Z,1019.3
2019-04-29T06:18:46.856Z,1019.3
2019-04-29T06:19:48.254Z,1019.2
2019-04-29T06:20:49.729Z,1019.3
2019-04-29T06:21:51.140Z,1019.3
2019-04-29T06:22:52.542Z,1019.4
2019-04-29T06:23:54.707Z,1019.3
2019-04-29T06:24:55.505Z,1019.4
2019-04-29T06:25:56.908Z,1019.3
2019-04-29T06:26:58.339Z,1019.3
2019-04-29T06:27:59.828Z,1019.4
2019-04-29T06:29:01.227Z,1019.4
2019-04-29T06:30:03.083Z,1019.4
2019-04-29T06:31:04.148Z,1019.4
2019-04-29T06:32:05.669Z,1019.4
2019-04-29T06:33:07.234Z,1019.4
2019-04-29T06:34:08.679Z,1019.4
2019-04-29T06:35:10.635Z,1019.5
2019-04-29T06:36:11.555Z,1019.4
2019-04-29T06:37:12.958Z,1019.4
2019-04-29T06:38:14.360Z,1019.5
2019-04-29T06:39:15.877Z,1019.5
2019-04-29T06:40:17.281Z,1019.4
2019-04-29T06:41:18.707Z,1019.4
2019-04-29T06:42:20.452Z,1019.5
2019-04-29T06:43:24.646Z,1019.5
2019-04-29T06:44:22.930Z,1019.5
2019-04-29T06:45:24.541Z,1019.5
2019-04-29T06:46:25.936Z,1019.5
2019-04-29T06:47:27.360Z,1019.5
2019-04-29T06:48:28.763Z,1019.5
2019-04-29T06:49:30.255Z,1019.6
2019-04-29T06:50:31.676Z,1019.6
2019-04-29T06:51:33.122Z,1019.6
2019-04-29T06:52:34.534Z,1019.7
2019-04-29T06:53:36.044Z,1019.7
2019-04-29T06:54:37.561Z,1019.7
2019-04-29T06:55:39.096Z,1019.7
2019-04-29T06:56:40.491Z,1019.7
2019-04-29T06:57:42.086Z,1019.7
2019-04-29T06:58:43.491Z,1019.8
2019-04-29T06:59:47.535Z,1019.8
2019-04-29T07:00:46.470Z,1019.9
2019-04-29T07:01:47.937Z,1019.9
2019-04-29T07:02:49.850Z,1019.9
2019-04-29T07:03:50.858Z,1019.9
2019-04-29T07:04:52.262Z,1020.0
2019-04-29T07:05:53.742Z,1019.9
2019-04-29T07:06:57.639Z,1020.0
2019-04-29T07:07:56.621Z,1019.9
2019-04-29T07:08:58.025Z,1019.8
2019-04-29T07:09:59.504Z,1019.8
2019-04-29T07:11:02.895Z,1020.0
2019-04-29T07:12:02.381Z,1019.9
2019-04-29T07:13:03.795Z,1020.0
2019-04-29T07:14:05.268Z,1020.1
2019-04-29T07:15:07.541Z,1020.2
2019-04-29T07:16:08.146Z,1020.3
2019-04-29T07:17:09.555Z,1020.3
2019-04-29T07:18:11.027Z,1020.3
2019-04-29T07:19:12.434Z,1020.2
2019-04-29T07:20:13.908Z,1020.1
2019-04-29T07:21:15.318Z,1020.1
2019-04-29T07:22:20.905Z,1020.2
2019-04-29T07:23:18.159Z,1020.2
2019-04-29T07:24:20.399Z,1020.4
2019-04-29T07:25:24.509Z,1020.5
2019-04-29T07:26:22.550Z,1020.5
2019-04-29T07:27:23.959Z,1020.4
2019-04-29T07:28:25.432Z,1020.4
2019-04-29T07:29:30.745Z,1020.4
2019-04-29T07:30:29.501Z,1020.3
2019-04-29T07:31:33.334Z,1020.4
2019-04-29T07:32:32.402Z,1020.4
2019-04-29T07:33:32.572Z,1020.3
2019-04-29T07:34:36.603Z,1020.4
2019-04-29T07:35:38.050Z,1020.4
2019-04-29T07:36:36.955Z,1020.3
2019-04-29T07:37:38.363Z,1020.3
2019-04-29T07:38:41.586Z,1020.3
2019-04-29T07:39:41.209Z,1020.3
2019-04-29T07:40:43.378Z,1020.3
2019-04-29T07:41:44.087Z,1020.2
2019-04-29T07:42:45.598Z,1020.3
2019-04-29T07:43:47.005Z,1020.3
2019-04-29T07:44:48.846Z,1020.3
2019-04-29T07:45:49.816Z,1020.2
2019-04-29T07:46:57.067Z,1020.2
2019-04-29T07:47:56.753Z,1020.3
2019-04-29T07:49:01.367Z,1020.4
2019-04-29T07:49:55.744Z,1020.3
2019-04-29T07:50:59.536Z,1020.3
2019-04-29T07:51:58.301Z,1020.3
2019-04-29T07:52:59.705Z,1020.4
2019-04-29T07:54:01.238Z,1020.3
2019-04-29T07:55:02.645Z,1020.3
2019-04-29T07:56:06.366Z,1020.3
2019-04-29T07:57:05.560Z,1020.4
2019-04-29T07:58:06.967Z,1020.5
2019-04-29T07:59:11.046Z,1020.5
2019-04-29T08:00:12.787Z,1020.5
2019-04-29T08:01:11.322Z,1020.5
2019-04-29T08:02:12.731Z,1020.5
2019-04-29T08:03:14.522Z,1020.6
2019-04-29T08:04:16.054Z,1020.6
2019-04-29T08:05:17.460Z,1020.5
2019-04-29T08:06:18.867Z,1020.5
2019-04-29T08:07:20.374Z,1020.4
2019-04-29T08:08:22.796Z,1020.3
2019-04-29T08:09:23.255Z,1020.4
2019-04-29T08:10:28.468Z,1020.4
2019-04-29T08:11:26.136Z,1020.4
2019-04-29T08:12:27.542Z,1020.5
2019-04-29T08:13:29.016Z,1020.4
2019-04-29T08:14:30.423Z,1020.5
2019-04-29T08:15:32.180Z,1020.5
2019-04-29T08:16:33.276Z,1020.5
2019-04-29T08:17:34.779Z,1020.5
2019-04-29T08:18:36.190Z,1020.5
2019-04-29T08:19:37.659Z,1020.6
2019-04-29T08:20:39.898Z,1020.6
2019-04-29T08:21:40.443Z,1020.6
2019-04-29T08:22:41.983Z,1020.6
2019-04-29T08:23:43.396Z,1020.5
2019-04-29T08:24:45.994Z,1020.4
2019-04-29T08:25:46.304Z,1020.3
2019-04-29T08:26:47.906Z,1020.4
2019-04-29T08:27:49.183Z,1020.5
2019-04-29T08:28:53.063Z,1020.6
2019-04-29T08:29:51.967Z,1020.7
2019-04-29T08:30:53.503Z,1020.7
2019-04-29T08:31:57.319Z,1020.9
2019-04-29T08:32:56.289Z,1020.9
2019-04-29T08:33:57.891Z,1020.7
2019-04-29T08:35:03.156Z,1021.0
2019-04-29T08:36:00.671Z,1021.0
2019-04-29T08:37:02.180Z,1021.0
2019-04-29T08:38:03.572Z,1020.2
2019-04-29T08:39:08.649Z,1021.0
2019-04-29T08:40:16.108Z,1021.0
2019-04-29T08:41:07.779Z,1020.9
2019-04-29T08:42:09.444Z,1021.0
2019-04-29T08:43:10.720Z,1020.9
2019-04-29T08:44:16.465Z,1021.0
2019-04-29T08:45:13.600Z,1021.1
2019-04-29T08:46:15.111Z,1021.2
2019-04-29T08:47:16.520Z,1021.3
2019-04-29T08:48:17.992Z,1020.7
2019-04-29T08:49:19.408Z,1021.2
2019-04-29T08:50:20.875Z,1021.4
2019-04-29T08:51:22.340Z,1021.3
2019-04-29T08:52:23.960Z,1021.3
2019-04-29T08:53:25.368Z,1021.3
2019-04-29T08:54:26.838Z,1021.3
2019-04-29T08:55:30.878Z,1020.3
2019-04-29T08:56:29.719Z,1020.0
2019-04-29T08:57:31.864Z,1020.1
2019-04-29T08:58:32.503Z,1021.6
2019-04-29T08:59:34.048Z,1020.5
2019-04-29T09:00:35.456Z,1021.7
2019-04-29T09:01:36.871Z,1021.7
2019-04-29T09:02:41.318Z,1021.1
2019-04-29T09:03:40.758Z,1021.7
2019-04-29T09:04:52.796Z,1021.9
2019-04-29T09:05:46.195Z,1020.5
2019-04-29T09:06:43.917Z,1020.8
2019-04-29T09:07:45.564Z,1020.6
2019-04-29T09:08:54.606Z,1020.1
2019-04-29T09:09:48.518Z,1020.1
2019-04-29T09:10:49.904Z,1020.4
2019-04-29T09:11:51.311Z,1020.5
2019-04-29T09:12:52.714Z,1020.6
2019-04-29T09:13:54.207Z,1020.1
2019-04-29T09:14:55.614Z,1020.3
2019-04-29T09:15:57.087Z,1020.1
2019-04-29T09:16:58.504Z,1020.7
2019-04-29T09:17:59.917Z,1022.3
2019-04-29T09:19:01.411Z,1023.1
2019-04-29T09:20:02.821Z,1023.6
2019-04-29T09:21:04.237Z,1022.9
2019-04-29T09:22:05.732Z,1023.9
2019-04-29T09:23:08.175Z,1023.5
2019-04-29T09:24:08.511Z,1025.5
2019-04-29T09:25:10.053Z,1025.9
2019-04-29T09:26:11.463Z,1026.4
2019-04-29T09:27:12.867Z,1022.7
2019-04-29T09:28:18.019Z,1026.8
2019-04-29T09:29:15.746Z,1027.1
2019-04-29T09:30:17.324Z,1027.8
2019-04-29T09:31:18.724Z,1027.8
2019-04-29T09:32:20.132Z,1028.1
2019-04-29T09:33:21.868Z,1028.6
2019-04-29T09:34:24.805Z,1029.1
2019-04-29T09:35:24.660Z,1026.7
2019-04-29T09:36:28.603Z,1029.5
2019-04-29T09:37:27.658Z,1029.0
2019-04-29T09:38:32.395Z,1030.3
2019-04-29T09:39:42.442Z,1029.3
2019-04-29T09:40:32.031Z,1020.0
2019-04-29T09:41:35.115Z,1020.9
2019-04-29T09:42:34.953Z,1020.8
2019-04-29T09:43:36.361Z,1020.8
2019-04-29T09:44:40.384Z,1020.8
2019-04-29T09:45:39.198Z,1020.2
2019-04-29T09:46:40.717Z,1020.6
2019-04-29T09:47:42.122Z,1020.1
2019-04-29T09:48:43.530Z,1021.4
2019-04-29T09:49:45.031Z,1020.6
2019-04-29T09:50:46.439Z,1025.4
2019-04-29T09:51:47.846Z,1020.1
2019-04-29T09:52:49.352Z,1020.8
2019-04-29T09:53:50.757Z,1019.8
2019-04-29T09:54:52.236Z,1019.9
2019-04-29T09:55:53.641Z,1020.2
2019-04-29T09:56:55.165Z,1019.9
2019-04-29T09:57:56.543Z,1019.6
2019-04-29T09:58:57.997Z,1019.5
2019-04-29T10:00:00.126Z,1019.6
2019-04-29T10:01:00.862Z,1019.8
2019-04-29T10:02:02.265Z,1019.9
2019-04-29T10:03:03.707Z,1019.8
2019-04-29T10:04:05.180Z,1019.7
2019-04-29T10:05:06.582Z,1019.8
2019-04-29T10:06:07.987Z,1020.1
2019-04-29T10:07:09.495Z,1020.0
2019-04-29T10:08:10.899Z,1019.5
2019-04-29T10:09:12.376Z,1019.6
2019-04-29T10:10:13.782Z,1020.0
2019-04-29T10:11:15.260Z,1019.8
2019-04-29T10:12:16.670Z,1019.6
2019-04-29T10:13:18.073Z,1019.7
2019-04-29T10:14:19.724Z,1019.8
2019-04-29T10:15:20.948Z,1019.8
2019-04-29T10:16:22.354Z,1019.7
2019-04-29T10:17:23.903Z,1019.8
2019-04-29T10:18:29.635Z,1020.0
2019-04-29T10:19:26.678Z,1019.9
2019-04-29T10:20:28.224Z,1019.9
2019-04-29T10:21:29.631Z,1019.8
2019-04-29T10:22:31.037Z,1019.6
2019-04-29T10:23:32.545Z,1020.0
2019-04-29T10:24:33.949Z,1019.6
2019-04-29T10:25:35.361Z,1019.4
2019-04-29T10:26:36.866Z,1019.5
2019-04-29T10:27:38.286Z,1019.6
2019-04-29T10:28:39.684Z,1019.5
2019-04-29T10:29:41.187Z,1019.6
2019-04-29T10:30:42.593Z,1019.7
2019-04-29T10:31:44.000Z,1019.7
2019-04-29T10:32:45.509Z,1019.9
2019-04-29T10:33:50.216Z,1020.0
2019-04-29T10:34:48.391Z,1019.8
2019-04-29T10:35:49.793Z,1020.0
2019-04-29T10:36:52.295Z,1019.9
2019-04-29T10:37:52.647Z,1019.8
2019-04-29T10:38:54.154Z,1019.8
2019-04-29T10:39:55.561Z,1019.8
2019-04-29T10:41:00.511Z,1019.6
2019-04-29T10:41:58.405Z,1019.4
2019-04-29T10:42:59.914Z,1019.3
2019-04-29T10:44:01.328Z,1019.4
2019-04-29T10:45:02.735Z,1019.4
2019-04-29T10:46:04.239Z,1019.4
2019-04-29T10:47:05.644Z,1019.3
2019-04-29T10:48:07.050Z,1019.3
2019-04-29T10:49:08.559Z,1019.4
2019-04-29T10:50:10.534Z,1019.7
2019-04-29T10:51:11.333Z,1019.9
2019-04-29T10:52:12.880Z,1019.9
2019-04-29T10:53:15.598Z,1019.9
2019-04-29T10:54:15.660Z,1019.9
2019-04-29T10:55:17.201Z,1019.8
2019-04-29T10:56:18.611Z,1019.8
2019-04-29T10:57:20.084Z,1019.7
2019-04-29T10:58:22.025Z,1019.7
2019-04-29T10:59:35.286Z,1019.8
2019-04-29T11:00:24.337Z,1019.8
2019-04-29T11:01:29.257Z,1019.9
2019-04-29T11:02:27.214Z,1019.8
2019-04-29T11:03:28.724Z,1019.8
2019-04-29T11:04:31.607Z,1019.7
2019-04-29T11:05:31.611Z,1019.4
2019-04-29T11:06:35.736Z,1019.2
2019-04-29T11:07:34.485Z,1019.1
2019-04-29T11:08:38.252Z,1019.1
2019-04-29T11:09:37.275Z,1019.1
2019-04-29T11:10:40.046Z,1019.2
2019-04-29T11:11:41.452Z,1019.5
2019-04-29T11:12:43.074Z,1019.7
2019-04-29T11:13:48.040Z,1019.7
2019-04-29T11:14:45.941Z,1019.7
2019-04-29T11:15:49.366Z,1019.6
2019-04-29T11:16:48.824Z,1019.6
2019-04-29T11:17:58.725Z,1019.3
2019-04-29T11:18:55.117Z,1019.4
2019-04-29T11:19:53.413Z,1019.4
2019-04-29T11:20:55.546Z,1019.3
2019-04-29T11:21:56.300Z,1019.3
2019-04-29T11:22:57.703Z,1019.4
2019-04-29T11:23:59.175Z,1019.4
2019-04-29T11:25:00.587Z,1019.4
2019-04-29T11:26:02.072Z,1019.2
2019-04-29T11:27:11.544Z,1019.1
2019-04-29T11:28:04.939Z,1018.9
2019-04-29T11:29:09.189Z,1018.8
2019-04-29T11:30:07.712Z,1018.9
2019-04-29T11:31:09.740Z,1019.0
2019-04-29T11:32:10.633Z,1019.1
2019-04-29T11:33:12.037Z,1019.2
2019-04-29T11:34:15.846Z,1019.2
2019-04-29T11:35:14.942Z,1019.2
2019-04-29T11:36:16.476Z,1019.2
2019-04-29T11:37:19.388Z,1019.3
2019-04-29T11:38:19.242Z,1019.2
2019-04-29T11:39:20.786Z,1019.2
2019-04-29T11:40:26.036Z,1019.2
2019-04-29T11:41:23.561Z,1019.1
2019-04-29T11:42:25.107Z,1018.9
2019-04-29T11:43:26.511Z,1018.8
2019-04-29T11:44:28.078Z,1018.8
2019-04-29T11:45:29.430Z,1018.9
2019-04-29T11:46:30.826Z,1018.9
2019-04-29T11:47:32.248Z,1018.8
2019-04-29T11:48:33.748Z,1018.7
2019-04-29T11:49:35.168Z,1018.7
2019-04-29T11:50:36.670Z,1018.8
2019-04-29T11:51:47.320Z,1019.0
2019-04-29T11:52:39.513Z,1019.0
2019-04-29T11:53:40.923Z,1019.1
2019-04-29T11:54:42.450Z,1019.1
2019-04-29T11:55:46.262Z,1019.1
2019-04-29T11:56:45.274Z,1019.0
2019-04-29T11:57:46.687Z,1019.1
2019-04-29T11:58:48.155Z,1019.1
2019-04-29T11:59:49.573Z,1019.0
2019-04-29T12:00:52.078Z,1019.1
2019-04-29T12:01:53.485Z,1019.1
2019-04-29T12:02:53.919Z,1018.9
2019-04-29T12:03:56.652Z,1018.9
2019-04-29T12:04:56.691Z,1018.9
2019-04-29T12:05:58.238Z,1018.8
2019-04-29T12:06:59.698Z,1018.8
2019-04-29T12:08:03.107Z,1018.8
2019-04-29T12:09:02.573Z,1018.8
2019-04-29T12:10:06.578Z,1018.8
2019-04-29T12:11:07.107Z,1018.8
2019-04-29T12:12:08.044Z,1018.8
2019-04-29T12:13:08.660Z,1018.7
2019-04-29T12:14:10.070Z,1018.7
2019-04-29T12:15:13.658Z,1018.7
2019-04-29T12:16:12.995Z,1018.7
2019-04-29T12:17:14.506Z,1018.7
2019-04-29T12:18:15.914Z,1018.7
2019-04-29T12:19:20.920Z,1018.7
2019-04-29T12:20:18.804Z,1018.7
2019-04-29T12:21:20.274Z,1018.7
2019-04-29T12:22:30.400Z,1018.7
2019-04-29T12:23:23.146Z,1018.6
2019-04-29T12:24:24.541Z,1018.6
2019-04-29T12:25:27.377Z,1018.6
2019-04-29T12:26:27.459Z,1018.7
2019-04-29T12:27:29.321Z,1018.7
2019-04-29T12:28:30.268Z,1018.7
2019-04-29T12:29:31.782Z,1018.7
2019-04-29T12:30:34.613Z,1018.7
2019-04-29T12:31:34.556Z,1018.7
2019-04-29T12:32:36.102Z,1018.6
2019-04-29T12:33:38.113Z,1018.6
2019-04-29T12:34:38.875Z,1018.6
2019-04-29T12:35:51.233Z,1018.5
2019-04-29T12:36:54.737Z,1018.5
2019-04-29T12:37:43.159Z,1018.5
2019-04-29T12:38:49.259Z,1018.5
2019-04-29T12:39:46.113Z,1018.5
2019-04-29T12:40:50.118Z,1018.5
2019-04-29T12:41:49.403Z,1018.4
2019-04-29T12:42:50.441Z,1018.4
2019-04-29T12:43:54.011Z,1018.4
2019-04-29T12:44:53.388Z,1018.4
2019-04-29T12:45:54.791Z,1018.3
2019-04-29T12:46:56.269Z,1018.3